Pagina principale
METAR-TAF:

METAR-TAF

Aeroporti :

Bad Vöslau, Austria

latitudine: 47-57-52N, longitudine: 016-15-34E, altezza: 233 m

Osservazione

Il bollettino è stato emesso 50 minuti fa, alle 13:00 UTC
Vento 4 kt da sud/sud-est
Temperature -1°C
Umidità 93%
Pressione
Visibilità: 2500 m
Cielo coperto ad un'altezza di 800 ft
foschia

METAR: LOAV 061300Z 15004KT 2500 BR OVC008 M01/M02

Ora: 14:50 (13:50 UTC)

Previsione

Il bollettino è stato emesso 2 ore e 25 minuti fa, alle 11:25 UTC
Previsione valida dal 06 alle 12 UTC al 06 alle 21 UTC
Vento 2 kt da direzioni variabili
Visibilità: 1500 m
ad un'altezza di 800 ft
foschia
Temporaneamente
dal 06 alle 12 UTC al 06 alle 18 UTC
Vento 6 kt da sud/sud-est
Visibilità: 8000 m
Nuvoloso ad un'altezza di 1500 ft

TAF: LOAV 061125Z 0612/0621 VRB02KT 1500 BR VV008 TEMPO 0612/0618 16006KT 8000 NSW BKN015

Osservazioni e previsioni meteorologiche di più di 4000 aeroporti (messaggi METAR e TAF).

Le stazioni disponibili sono rappresentate dai dischi gialli e rossi sulla carta.

Puntare il mouse per vedere il nome della stazione.

Clicca sopra per visualizzare le osservazioni e previsioni meteorologiche.

Per cambiare la mappa : fare clic sui pulsanti verdi con una croce nera per ingrandire, il pulsante verde con un trattino per diminuire, o sulla freccia verde per le mappe adiacenti.


METAR-TAF: